Time;durP1;ratioP1;P1;durP2;ratioP2;P2;SDS_P1;SDS_P2;PMS_P1;PMS_P2;Temp;Humidity;BMP_temperature;BMP_pressure;BME280_temperature;BME280_humidity;BME280_pressure;Samples;Min_cycle;Max_cycle;Signal;HPM_P1;HPM_P2
2022/02/10 00:17:43;;;;;;;56.95;21.73;;;7.60;87.20;;;;;;5022886;28;20044;-60
2022/02/10 00:20:21;;;;;;;47.70;20.25;;;7.60;87.20;;;;;;5023119;28;20040;-63
2022/02/10 00:35:59;;;;;;;46.92;20.92;;;7.50;87.30;;;;;;5023731;28;20503;-61
2022/02/10 00:38:30;;;;;;;47.58;22.27;;;7.50;87.40;;;;;;5024211;28;20030;-60
2022/02/10 00:40:56;;;;;;;50.20;21.27;;;7.50;87.40;;;;;;5023846;28;20440;-63
2022/02/10 00:43:21;;;;;;;52.78;21.45;;;7.50;87.40;;;;;;5022767;28;20030;-64
2022/02/10 00:45:47;;;;;;;53.65;21.70;;;7.40;87.40;;;;;;5003332;28;20072;-61
2022/02/10 00:48:13;;;;;;;50.38;21.27;;;7.40;87.40;;;;;;5020017;28;20493;-62
2022/02/10 00:50:40;;;;;;;57.83;21.55;;;7.40;87.40;;;;;;5022793;28;20021;-61
2022/02/10 00:55:38;;;;;;;49.45;22.95;;;7.60;87.50;;;;;;5021490;28;20357;-62
2022/02/10 00:58:07;;;;;;;54.05;20.70;;;7.40;87.40;;;;;;5024044;28;20025;-62
2022/02/10 01:29:43;;;;;;;51.88;21.92;;;7.20;87.70;;;;;;5018715;28;20601;-62
2022/02/10 01:32:09;;;;;;;50.78;21.55;;;7.20;87.80;;;;;;5023728;28;20029;-65
2022/02/10 01:34:39;;;;;;;49.47;22.00;;;7.20;88.00;;;;;;5003920;28;20349;-63
2022/02/10 01:37:05;;;;;;;45.88;21.42;;;7.10;88.00;;;;;;5021473;28;20094;-61
2022/02/10 01:39:35;;;;;;;40.63;19.45;;;7.10;88.10;;;;;;5020542;28;20139;-62
2022/02/10 02:03:46;;;;;;;38.78;19.08;;;7.10;89.00;;;;;;5019305;28;20160;-60
2022/02/10 02:06:19;;;;;;;39.92;19.20;;;7.10;89.80;;;;;;5020379;28;20121;-61
2022/02/10 02:08:45;;;;;;;39.53;18.48;;;7.10;89.20;;;;;;5021794;28;20052;-62
2022/02/10 02:11:11;;;;;;;39.00;18.75;;;7.00;89.20;;;;;;5006139;28;20416;-61
2022/02/10 02:13:37;;;;;;;38.08;18.90;;;7.10;89.20;;;;;;5003290;28;20110;-62
2022/02/10 02:16:02;;;;;;;37.47;17.83;;;7.00;89.20;;;;;;5019176;28;20052;-62
2022/02/10 02:18:28;;;;;;;44.80;17.35;;;7.00;89.20;;;;;;5020054;28;20434;-60
2022/02/10 02:20:55;;;;;;;43.05;17.73;;;7.00;89.20;;;;;;5022987;28;20048;-61
2022/02/10 02:23:22;;;;;;;39.63;17.35;;;7.00;89.30;;;;;;5021816;28;20376;-63
2022/02/10 02:25:51;;;;;;;35.30;16.83;;;7.00;89.30;;;;;;5021963;28;20488;-60
2022/02/10 02:28:17;;;;;;;41.97;18.67;;;7.00;89.30;;;;;;5020433;28;20181;-62
2022/02/10 02:30:55;;;;;;;36.72;18.08;;;7.00;89.30;;;;;;5019398;28;20358;-62
2022/02/10 03:08:47;;;;;;;31.52;15.95;;;6.80;89.50;;;;;;5018804;28;20033;-61
2022/02/10 03:11:14;;;;;;;28.98;14.98;;;6.80;89.50;;;;;;5018107;28;20033;-62
2022/02/10 03:13:50;;;;;;;30.08;16.75;;;6.80;89.50;;;;;;5023735;28;20025;-64
2022/02/10 03:19:03;;;;;;;30.20;16.02;;;6.80;89.50;;;;;;5023690;28;20117;-62
2022/02/10 03:21:54;;;;;;;30.08;15.25;;;6.80;89.60;;;;;;5022001;28;20481;-63
2022/02/10 05:33:45;;;;;;;86.90;18.25;;;6.30;90.10;;;;;;5018986;28;20447;-60
2022/02/10 05:36:14;;;;;;;136.77;21.40;;;6.30;90.10;;;;;;5010980;28;20029;-63
2022/02/10 05:38:49;;;;;;;346.70;36.20;;;6.30;90.10;;;;;;5020904;28;20069;-62
2022/02/10 05:44:17;;;;;;;168.10;24.15;;;6.30;90.10;;;;;;5020688;28;20060;-63
2022/02/10 05:46:59;;;;;;;158.30;23.08;;;6.30;90.20;;;;;;5019391;28;20090;-61
2022/02/10 05:54:44;;;;;;;149.93;22.20;;;6.30;90.40;;;;;;5021788;28;20034;-61
2022/02/10 06:52:31;;;;;;;70.68;16.77;;;6.10;90.50;;;;;;5022777;28;20105;-59
2022/02/10 07:08:19;;;;;;;88.25;16.88;;;6.00;90.50;;;;;;5023864;28;20447;-62
2022/02/10 07:13:43;;;;;;;70.15;14.93;;;6.10;90.50;;;;;;5023962;28;20036;-62
2022/02/10 07:16:51;;;;;;;63.75;13.55;;;6.10;90.50;;;;;;5023344;28;20048;-61
2022/02/10 07:45:17;;;;;;;57.92;13.02;;;6.00;90.50;;;;;;5023854;28;20099;-61
2022/02/10 07:49:38;;;;;;;48.90;13.63;;;6.00;90.60;;;;;;5024932;28;21299;-63
2022/02/10 07:52:30;;;;;;;46.22;10.95;;;6.00;90.50;;;;;;5024815;28;20030;-62
2022/02/10 07:55:33;;;;;;;40.47;11.38;;;6.00;90.50;;;;;;5022335;28;20126;-63
2022/02/10 08:51:12;;;;;;;44.55;9.80;;;6.10;90.70;;;;;;5019971;28;20236;-63
2022/02/10 09:03:43;;;;;;;48.63;10.82;;;6.20;90.80;;;;;;5016921;28;20061;-60
2022/02/10 09:22:19;;;;;;;64.80;10.40;;;6.30;91.10;;;;;;5017232;28;20088;-63
2022/02/10 10:02:46;;;;;;;34.33;8.57;;;6.60;91.30;;;;;;5017150;28;20110;-62
2022/02/10 10:05:33;;;;;;;36.33;8.40;;;6.60;91.20;;;;;;5018780;28;20014;-61
2022/02/10 10:17:09;;;;;;;39.92;8.82;;;6.70;91.30;;;;;;5018450;28;20041;-62
2022/02/10 10:20:24;;;;;;;33.15;7.82;;;6.70;91.20;;;;;;5017965;28;20373;-62
2022/02/10 10:51:36;;;;;;;30.50;8.30;;;7.10;91.40;;;;;;5017365;28;20116;-60
2022/02/10 10:56:09;;;;;;;57.35;9.75;;;7.20;91.40;;;;;;5020822;28;20032;-62
2022/02/10 10:58:46;;;;;;;51.88;8.35;;;7.10;91.30;;;;;;5014468;28;20504;-61
2022/02/10 11:38:34;;;;;;;49.47;8.98;;;7.60;90.90;;;;;;5024987;28;20696;-60
2022/02/10 11:44:12;;;;;;;50.22;9.32;;;7.70;90.90;;;;;;5016241;28;20064;-60
2022/02/10 12:29:52;;;;;;;42.80;7.47;;;8.20;89.80;;;;;;5021370;28;20453;-60
2022/02/10 12:36:06;;;;;;;75.68;11.15;;;8.20;89.70;;;;;;5016642;28;20245;-61
2022/02/10 13:26:00;;;;;;;85.65;14.10;;;8.80;90.20;;;;;;5023163;28;20111;-62
2022/02/10 14:10:38;;;;;;;68.13;10.43;;;9.50;89.50;;;;;;5018259;28;20036;-64
2022/02/10 14:25:55;;;;;;;165.45;21.95;;;9.70;89.50;;;;;;5001663;28;20099;-61
2022/02/10 14:28:24;;;;;;;157.85;20.13;;;9.70;89.70;;;;;;5012617;28;20103;-62
2022/02/10 14:30:52;;;;;;;124.10;18.80;;;9.70;89.70;;;;;;5022217;28;20021;-61
2022/02/10 14:33:27;;;;;;;115.32;18.15;;;9.80;89.70;;;;;;5016013;28;20026;-62
2022/02/10 14:35:58;;;;;;;132.93;18.65;;;9.80;89.50;;;;;;5016210;28;20549;-59
2022/02/10 15:12:10;;;;;;;121.45;16.33;;;10.10;90.30;;;;;;5020040;28;20032;-62
2022/02/10 15:47:45;;;;;;;99.45;13.65;;;10.50;90.50;;;;;;5018838;28;20103;-61
2022/02/10 16:18:31;;;;;;;145.45;20.17;;;10.80;90.80;;;;;;4994250;28;20412;-62
2022/02/10 16:21:00;;;;;;;144.50;18.38;;;10.80;90.90;;;;;;5010238;28;20743;-64
2022/02/10 16:23:29;;;;;;;160.95;21.83;;;10.90;90.90;;;;;;5010984;28;20024;-62
2022/02/10 16:26:07;;;;;;;153.68;19.33;;;10.90;91.00;;;;;;5013712;28;20026;-63
2022/02/10 16:28:35;;;;;;;174.80;19.98;;;10.90;90.90;;;;;;4989588;28;20045;-61
2022/02/10 16:31:00;;;;;;;189.05;21.52;;;10.90;91.10;;;;;;4992106;28;20107;-64
2022/02/10 16:33:26;;;;;;;166.70;20.50;;;10.90;91.10;;;;;;4994790;28;20059;-63
2022/02/10 16:35:51;;;;;;;146.73;19.40;;;10.90;91.10;;;;;;5027594;28;20501;-61
2022/02/10 16:38:17;;;;;;;129.15;18.92;;;10.90;91.10;;;;;;4992160;28;20128;-63
2022/02/10 16:40:42;;;;;;;194.50;25.33;;;11.00;91.00;;;;;;5009338;28;20152;-61
2022/02/10 16:43:08;;;;;;;171.52;23.70;;;10.90;91.10;;;;;;5012412;28;20140;-62
2022/02/10 16:45:34;;;;;;;167.70;22.25;;;11.00;91.30;;;;;;5009225;28;20033;-62
2022/02/10 16:47:59;;;;;;;160.73;23.95;;;11.00;91.20;;;;;;5010753;28;20033;-59
2022/02/10 16:50:25;;;;;;;169.95;21.35;;;11.00;91.30;;;;;;4996085;28;20437;-61
2022/02/10 16:52:59;;;;;;;188.45;24.20;;;11.00;91.20;;;;;;5011662;28;20025;-63
2022/02/10 17:03:27;;;;;;;135.90;19.55;;;11.00;90.70;;;;;;5003086;28;20119;-61
2022/02/10 17:14:03;;;;;;;172.05;21.58;;;11.10;90.70;;;;;;4996723;28;20029;-62
2022/02/10 17:19:11;;;;;;;212.07;24.20;;;11.20;91.10;;;;;;5016435;28;20108;-63
2022/02/10 17:27:10;;;;;;;233.23;25.98;;;11.10;91.40;;;;;;5015711;28;20052;-63
2022/02/10 17:32:26;;;;;;;211.73;24.90;;;11.20;91.20;;;;;;5006974;28;20047;-64
2022/02/10 17:41:18;;;;;;;189.85;25.90;;;11.30;91.50;;;;;;5013907;28;20030;-62
2022/02/10 17:44:00;;;;;;;263.10;32.47;;;11.30;91.80;;;;;;5013454;28;20103;-61
2022/02/10 17:53:50;;;;;;;255.40;30.70;;;11.40;91.70;;;;;;5015735;28;20155;-63
2022/02/10 17:56:16;;;;;;;274.45;31.85;;;11.40;91.60;;;;;;5013690;28;20030;-63
2022/02/10 17:58:41;;;;;;;281.95;34.65;;;11.50;91.60;;;;;;5014108;28;20021;-64
2022/02/10 18:01:07;;;;;;;246.23;33.70;;;11.50;91.50;;;;;;5008572;28;20133;-63
2022/02/10 18:03:33;;;;;;;333.38;35.85;;;11.50;91.70;;;;;;5010787;28;20029;-63
2022/02/10 18:08:27;;;;;;;262.77;33.42;;;11.50;91.80;;;;;;5010551;28;20029;-62
2022/02/10 18:11:36;;;;;;;304.55;36.10;;;11.50;91.80;;;;;;5008832;28;20053;-63
2022/02/10 18:16:30;;;;;;;361.83;43.65;;;11.60;91.70;;;;;;5012125;28;20040;-61
2022/02/10 18:19:04;;;;;;;368.38;44.05;;;11.60;91.90;;;;;;4994082;28;20836;-61
2022/02/10 18:22:04;;;;;;;327.00;38.72;;;11.60;91.90;;;;;;5008469;28;20481;-61
2022/02/10 19:07:16;;;;;;;412.75;54.10;;;11.80;92.10;;;;;;5016758;28;20734;-62
2022/02/10 19:09:45;;;;;;;497.45;58.97;;;11.80;92.20;;;;;;5017132;28;20057;-62
2022/02/10 19:12:19;;;;;;;449.88;57.03;;;11.90;92.10;;;;;;5017395;28;20049;-62
2022/02/10 19:17:43;;;;;;;442.42;52.05;;;11.90;92.20;;;;;;5004101;28;20097;-63
2022/02/10 19:20:09;;;;;;;456.23;53.05;;;11.90;92.10;;;;;;5011797;28;20030;-61
2022/02/10 19:22:35;;;;;;;466.45;58.53;;;12.00;92.10;;;;;;5017417;28;20041;-61
2022/02/10 19:25:01;;;;;;;430.55;49.45;;;11.90;92.10;;;;;;5018845;28;20041;-61
2022/02/10 19:27:26;;;;;;;441.75;53.67;;;11.90;92.10;;;;;;5016788;28;20485;-62
2022/02/10 19:29:57;;;;;;;453.58;55.15;;;11.90;92.20;;;;;;5017350;28;20027;-63
2022/02/10 19:32:24;;;;;;;473.23;57.13;;;11.90;92.20;;;;;;5016578;28;20052;-61
2022/02/10 19:34:52;;;;;;;491.92;61.55;;;11.90;92.30;;;;;;4999954;28;20512;-63
2022/02/10 19:37:18;;;;;;;451.48;57.30;;;12.00;92.30;;;;;;5011181;28;20034;-62
2022/02/10 19:39:45;;;;;;;446.48;53.05;;;12.00;92.20;;;;;;5011965;28;20123;-62
2022/02/10 19:42:11;;;;;;;431.52;54.40;;;12.00;92.20;;;;;;4999132;28;20378;-62
2022/02/10 19:44:37;;;;;;;443.60;58.20;;;11.90;92.30;;;;;;5016649;28;20047;-63
2022/02/10 19:47:03;;;;;;;419.60;54.03;;;12.00;92.60;;;;;;5012785;28;20029;-63
2022/02/10 19:49:29;;;;;;;462.85;55.38;;;12.00;92.40;;;;;;5013061;28;20022;-61
2022/02/10 19:51:54;;;;;;;455.65;55.97;;;12.00;92.20;;;;;;5021275;28;21575;-63
2022/02/10 19:54:34;;;;;;;516.13;64.20;;;12.00;92.30;;;;;;5017813;28;20022;-63
2022/02/10 19:57:00;;;;;;;544.50;63.00;;;12.00;92.20;;;;;;4996859;28;20025;-62
2022/02/10 19:59:29;;;;;;;538.53;69.00;;;12.00;92.20;;;;;;5010359;28;20166;-62
2022/02/10 20:01:54;;;;;;;483.23;57.92;;;12.10;92.30;;;;;;5009955;28;20091;-61
2022/02/10 20:04:20;;;;;;;472.05;58.17;;;12.10;92.00;;;;;;5016011;28;20624;-61
2022/02/10 20:06:47;;;;;;;555.33;72.95;;;12.00;91.90;;;;;;5013518;28;20029;-62
2022/02/10 20:09:13;;;;;;;441.23;56.05;;;12.00;92.00;;;;;;5015042;28;20107;-63
2022/02/10 20:11:39;;;;;;;541.03;65.28;;;12.00;92.10;;;;;;5013792;28;20091;-62
2022/02/10 20:14:04;;;;;;;429.00;59.35;;;11.90;92.10;;;;;;5014549;28;20029;-63
2022/02/10 20:16:30;;;;;;;475.88;62.50;;;11.90;92.20;;;;;;5014994;28;20022;-63
2022/02/10 20:18:55;;;;;;;443.10;58.03;;;11.90;92.30;;;;;;5028439;28;20026;-61
2022/02/10 20:21:21;;;;;;;467.48;59.78;;;11.90;92.40;;;;;;5011247;28;20038;-62
2022/02/10 20:23:47;;;;;;;476.80;64.28;;;11.90;92.50;;;;;;5011721;28;20068;-62
2022/02/10 20:26:13;;;;;;;486.17;58.78;;;11.90;92.50;;;;;;5012027;28;20079;-62
2022/02/10 20:28:39;;;;;;;437.38;56.25;;;11.90;92.50;;;;;;4998870;28;20046;-63
2022/02/10 20:31:05;;;;;;;432.90;58.53;;;11.90;92.50;;;;;;5015448;28;20040;-64
2022/02/10 20:33:31;;;;;;;469.13;60.22;;;11.90;92.40;;;;;;5007912;28;20061;-62
2022/02/10 20:35:59;;;;;;;473.65;60.78;;;11.90;92.60;;;;;;4993802;28;20140;-61
2022/02/10 20:38:25;;;;;;;507.27;64.82;;;11.80;92.70;;;;;;5014863;28;20588;-63
2022/02/10 20:41:00;;;;;;;474.02;60.25;;;11.90;92.80;;;;;;5015569;28;20508;-63
2022/02/10 20:43:26;;;;;;;429.75;58.13;;;11.80;92.80;;;;;;5010338;28;20064;-63
2022/02/10 20:46:01;;;;;;;536.25;65.88;;;11.90;92.70;;;;;;5000582;28;20120;-63
2022/02/10 20:48:29;;;;;;;470.77;62.13;;;11.90;92.70;;;;;;5011595;28;20029;-62
2022/02/10 20:50:56;;;;;;;464.30;58.28;;;11.80;92.60;;;;;;5017058;28;20060;-63
2022/02/10 20:53:26;;;;;;;448.02;58.17;;;11.90;92.70;;;;;;5007432;28;20400;-63
2022/02/10 20:55:56;;;;;;;445.08;56.60;;;11.80;92.70;;;;;;5011466;28;20463;-62
2022/02/10 20:58:24;;;;;;;400.60;56.17;;;11.80;92.60;;;;;;5000899;28;20025;-63
2022/02/10 21:00:51;;;;;;;444.90;57.38;;;11.80;92.60;;;;;;5010035;28;20025;-63
2022/02/10 21:03:20;;;;;;;383.23;55.28;;;11.80;92.80;;;;;;5010234;28;20659;-62
2022/02/10 21:05:46;;;;;;;364.83;53.85;;;11.80;92.80;;;;;;5016133;28;20030;-61
2022/02/10 21:08:42;;;;;;;372.17;50.90;;;11.70;92.70;;;;;;5015264;28;20021;-61
2022/02/10 21:10:58;;;;;;;351.88;52.30;;;11.70;92.70;;;;;;5015624;28;20112;-62
2022/02/10 21:13:24;;;;;;;378.35;53.00;;;11.70;92.90;;;;;;5011505;28;20481;-62
2022/02/10 21:15:50;;;;;;;358.83;53.75;;;11.70;92.80;;;;;;5015058;28;20022;-63
2022/02/10 21:18:17;;;;;;;419.90;56.70;;;11.70;92.90;;;;;;5014080;28;20675;-64
2022/02/10 21:20:44;;;;;;;415.23;55.28;;;11.70;93.00;;;;;;5012081;28;20428;-63
2022/02/10 21:25:38;;;;;;;355.67;52.67;;;11.70;92.90;;;;;;5016736;28;20034;-63
2022/02/10 21:28:14;;;;;;;372.58;52.00;;;11.60;92.90;;;;;;5016171;28;20898;-63
2022/02/10 21:30:39;;;;;;;338.50;47.40;;;11.60;92.80;;;;;;5014346;28;20391;-62
2022/02/10 21:33:07;;;;;;;339.70;49.55;;;11.60;92.70;;;;;;5017976;28;20048;-63
2022/02/10 21:38:22;;;;;;;316.88;48.30;;;11.60;92.70;;;;;;5021912;28;20040;-61
2022/02/10 22:05:43;;;;;;;287.95;42.92;;;11.40;92.80;;;;;;5013932;28;20161;-61
2022/02/10 22:10:18;;;;;;;258.50;41.63;;;11.30;92.60;;;;;;5019136;28;20030;-62
2022/02/10 22:21:18;;;;;;;246.00;36.03;;;11.20;92.20;;;;;;5006505;28;20122;-61
2022/02/10 22:23:46;;;;;;;240.35;38.55;;;11.20;92.20;;;;;;5010056;28;20072;-63
2022/02/10 22:26:18;;;;;;;250.75;38.17;;;11.20;92.20;;;;;;5013511;28;20352;-62
2022/02/10 22:28:52;;;;;;;244.27;39.70;;;11.20;92.30;;;;;;5022529;28;20084;-61
2022/02/10 22:33:51;;;;;;;268.20;40.63;;;11.20;92.30;;;;;;5014034;28;20041;-63
2022/02/10 22:36:19;;;;;;;237.55;38.40;;;11.20;92.30;;;;;;5019354;28;20438;-63
2022/02/10 22:38:47;;;;;;;214.45;34.90;;;11.20;92.30;;;;;;5014637;28;20033;-63
2022/02/10 22:41:13;;;;;;;218.10;35.90;;;11.10;92.10;;;;;;4998738;28;20109;-63
2022/02/10 22:43:43;;;;;;;223.63;35.78;;;11.10;92.10;;;;;;5012409;28;20463;-61
2022/02/10 22:46:09;;;;;;;210.50;36.13;;;11.10;92.20;;;;;;5011084;28;20214;-62
2022/02/10 22:48:34;;;;;;;229.18;33.47;;;11.10;92.20;;;;;;5005862;28;20036;-64
2022/02/10 22:51:00;;;;;;;205.18;31.63;;;11.10;92.20;;;;;;5010360;28;20363;-61
2022/02/10 22:53:25;;;;;;;187.65;32.30;;;11.10;92.10;;;;;;5021888;28;20040;-62
2022/02/10 22:55:51;;;;;;;231.82;36.47;;;11.00;92.10;;;;;;5012468;28;20058;-63
2022/02/10 22:58:17;;;;;;;203.93;32.97;;;11.00;92.10;;;;;;5018396;28;20108;-63
2022/02/10 23:00:48;;;;;;;217.73;33.55;;;11.00;92.20;;;;;;5008177;28;20080;-61
2022/02/10 23:03:18;;;;;;;189.77;33.25;;;11.00;92.10;;;;;;5026348;28;20607;-60
2022/02/10 23:05:44;;;;;;;194.00;33.35;;;11.00;92.10;;;;;;5015823;28;20091;-61
2022/02/10 23:08:10;;;;;;;180.93;32.88;;;11.00;92.10;;;;;;4998393;28;20120;-63
2022/02/10 23:10:53;;;;;;;186.75;31.25;;;11.00;92.10;;;;;;5018826;28;20018;-60
2022/02/10 23:13:26;;;;;;;156.30;30.50;;;10.90;92.00;;;;;;5021499;28;20144;-64
2022/02/10 23:15:51;;;;;;;189.32;32.13;;;11.00;92.00;;;;;;5025461;28;20060;-61
2022/02/10 23:18:21;;;;;;;160.35;29.42;;;11.00;92.10;;;;;;5027358;28;20418;-62
2022/02/10 23:20:47;;;;;;;138.10;28.10;;;10.90;92.00;;;;;;4998213;28;20484;-60
2022/02/10 23:23:14;;;;;;;133.30;26.23;;;10.90;92.10;;;;;;5019874;28;20272;-62
2022/02/10 23:25:40;;;;;;;196.80;31.52;;;10.90;92.10;;;;;;5025783;28;20398;-59
2022/02/10 23:28:07;;;;;;;205.70;31.77;;;10.90;92.20;;;;;;5022347;28;20054;-61
2022/02/10 23:30:33;;;;;;;162.00;30.50;;;10.80;92.40;;;;;;5028133;28;20084;-61
2022/02/10 23:33:07;;;;;;;151.80;28.02;;;10.80;92.40;;;;;;5022399;28;20057;-61
2022/02/10 23:37:58;;;;;;;151.27;27.23;;;10.80;92.40;;;;;;5022904;28;20041;-62
2022/02/10 23:40:29;;;;;;;146.32;29.35;;;10.80;92.30;;;;;;5027239;28;20115;-59
2022/02/10 23:42:55;;;;;;;135.98;28.15;;;10.80;92.20;;;;;;5024563;28;20026;-62
2022/02/10 23:45:25;;;;;;;125.20;27.42;;;10.80;92.20;;;;;;5028480;28;20022;-65
2022/02/10 23:47:51;;;;;;;104.72;26.42;;;10.80;92.20;;;;;;5024674;28;20111;-60
2022/02/10 23:50:21;;;;;;;142.80;28.45;;;10.80;92.30;;;;;;5025188;28;20026;-62
2022/02/10 23:52:51;;;;;;;144.82;26.42;;;10.70;92.30;;;;;;5028826;28;20167;-64
2022/02/10 23:55:22;;;;;;;143.63;29.75;;;10.70;92.30;;;;;;5026846;28;20063;-61
2022/02/10 23:58:13;;;;;;;145.55;28.00;;;10.70;92.30;;;;;;5030215;28;20017;-63
